Terminal Aerodrome Forecast
Issued by NWS Cleveland, OH

Home | Current Version | Previous Version | Graphics & Text | Print | Product List | Glossary Off
Versions: 1 2 3 4 5 6 7 8 9 10 11 12 13 14 15 16 17 18 19

814
FTUS41 KCLE 102341
TAFTOL
TAF
KTOL 102341Z 1100/1124 29015G25KT P6SM VCSH SCT025 OVC040
      TEMPO 1100/1102 3SM -SHSN OVC018
     FM110500 28012KT P6SM SCT045
     FM111000 29007KT P6SM BKN035
     FM111500 30009KT P6SM SCT040=

USA.gov is the U.S. government's official web portal to all federal, state and local government web resources and services.